Time;durP1;ratioP1;P1;durP2;ratioP2;P2;SDS_P1;SDS_P2;PMS_P1;PMS_P2;Temp;Humidity;BMP_temperature;BMP_pressure;BME280_temperature;BME280_humidity;BME280_pressure;Samples;Min_cycle;Max_cycle;Signal;HPM_P1;HPM_P2
2022/06/10 00:01:06;;;;;;;12.73;2.73;;;16.10;99.90;;;;;;4933583;29;20196;-60
2022/06/10 00:04:14;;;;;;;10.50;2.20;;;16.20;99.90;;;;;;4929490;29;20719;-60
2022/06/10 00:07:20;;;;;;;8.53;2.60;;;16.20;99.90;;;;;;4935368;29;20696;-60
2022/06/10 00:10:27;;;;;;;13.47;2.87;;;16.20;99.90;;;;;;4923433;29;20216;-60
2022/06/10 00:13:37;;;;;;;10.83;3.00;;;16.30;99.90;;;;;;4931074;29;20295;-60
2022/06/10 00:16:42;;;;;;;6.73;2.30;;;16.20;99.90;;;;;;4930455;29;20228;-60
2022/06/10 00:19:50;;;;;;;6.13;2.33;;;16.30;99.90;;;;;;4933572;29;20260;-60
2022/06/10 00:22:56;;;;;;;10.67;3.17;;;16.30;99.90;;;;;;4931753;29;20200;-60
2022/06/10 00:26:04;;;;;;;11.33;2.60;;;16.20;99.90;;;;;;4933316;29;20826;-60
2022/06/10 00:29:10;;;;;;;9.90;2.73;;;16.20;99.90;;;;;;4929224;29;20241;-60
2022/06/10 00:32:17;;;;;;;11.70;2.40;;;16.10;99.90;;;;;;4928810;29;20330;-60
2022/06/10 00:35:25;;;;;;;16.50;2.70;;;16.20;99.90;;;;;;4925785;29;20236;-60
2022/06/10 00:38:31;;;;;;;10.63;2.83;;;16.20;99.90;;;;;;4914789;29;20233;-60
2022/06/10 00:41:41;;;;;;;11.60;2.70;;;16.20;99.90;;;;;;4914142;29;20232;-60
2022/06/10 00:44:52;;;;;;;9.43;2.37;;;16.10;99.90;;;;;;4916043;29;20696;-60
2022/06/10 00:47:57;;;;;;;10.33;2.60;;;16.20;99.90;;;;;;4912307;29;20256;-60
2022/06/10 00:51:13;;;;;;;7.03;2.33;;;16.30;99.90;;;;;;4917665;29;20268;-60
2022/06/10 00:54:24;;;;;;;5.93;2.10;;;16.20;99.90;;;;;;4915917;29;20553;-60
2022/06/10 00:57:34;;;;;;;9.93;2.60;;;16.10;99.90;;;;;;4905591;29;20713;-60
2022/06/10 01:00:40;;;;;;;9.90;2.73;;;16.10;99.90;;;;;;4916516;29;20257;-60
2022/06/10 01:03:47;;;;;;;8.97;2.20;;;16.00;99.90;;;;;;4914892;29;20240;-60
2022/06/10 01:06:55;;;;;;;7.67;2.20;;;16.00;99.90;;;;;;4913163;29;20274;-60
2022/06/10 01:10:02;;;;;;;4.77;2.20;;;16.00;99.90;;;;;;4910742;29;20218;-60
2022/06/10 01:13:23;;;;;;;9.37;2.60;;;16.10;99.90;;;;;;4911844;29;20735;-60
2022/06/10 01:16:36;;;;;;;8.47;2.60;;;16.00;99.90;;;;;;4915898;29;20220;-60
2022/06/10 01:20:03;;;;;;;10.93;3.13;;;16.00;99.90;;;;;;4916779;29;20216;-60
2022/06/10 01:23:51;;;;;;;11.87;2.60;;;16.00;99.90;;;;;;4912801;29;20255;-60
2022/06/10 01:30:58;;;;;;;14.50;2.70;;;16.00;99.90;;;;;;4918405;29;20570;-60
2022/06/10 01:34:14;;;;;;;11.83;3.13;;;15.90;99.90;;;;;;4913461;29;20695;-60
2022/06/10 01:37:28;;;;;;;13.50;2.90;;;16.00;99.90;;;;;;4916254;29;20256;-60
2022/06/10 01:40:40;;;;;;;8.43;2.27;;;16.00;99.90;;;;;;4917770;29;20277;-59
2022/06/10 01:43:56;;;;;;;9.73;2.60;;;16.10;99.90;;;;;;4909479;29;20269;-60
2022/06/10 01:47:10;;;;;;;10.33;2.50;;;16.10;99.90;;;;;;4916017;29;20225;-60
2022/06/10 01:50:22;;;;;;;10.87;2.57;;;16.00;99.90;;;;;;4912771;29;20233;-60
2022/06/10 01:53:37;;;;;;;10.10;2.47;;;16.00;99.90;;;;;;4907847;29;20214;-60
2022/06/10 01:56:48;;;;;;;11.50;2.60;;;16.00;99.90;;;;;;4916583;29;20543;-60
2022/06/10 01:59:58;;;;;;;8.57;3.03;;;16.10;99.90;;;;;;4906218;29;20348;-60
2022/06/10 02:03:16;;;;;;;10.77;2.30;;;16.10;99.90;;;;;;4909369;29;20256;-59
2022/06/10 02:06:28;;;;;;;10.27;2.50;;;16.20;99.90;;;;;;4915599;29;20245;-59
2022/06/10 02:09:41;;;;;;;12.67;2.70;;;16.10;99.90;;;;;;4912725;29;20202;-60
2022/06/10 02:12:58;;;;;;;6.73;2.40;;;16.10;99.90;;;;;;4914297;29;20221;-59
2022/06/10 02:16:09;;;;;;;8.00;2.40;;;16.10;99.90;;;;;;4914997;29;20228;-60
2022/06/10 02:19:21;;;;;;;10.07;2.60;;;16.10;99.90;;;;;;4906089;29;20238;-60
2022/06/10 02:22:31;;;;;;;13.27;2.97;;;16.20;99.90;;;;;;4919272;29;20232;-59
2022/06/10 02:25:43;;;;;;;7.73;2.50;;;16.10;99.90;;;;;;4912416;29;20684;-60
2022/06/10 02:28:54;;;;;;;9.57;3.10;;;16.00;99.90;;;;;;4916130;29;20582;-60
2022/06/10 02:32:01;;;;;;;6.17;2.53;;;16.10;99.90;;;;;;4916751;29;20261;-59
2022/06/10 02:35:30;;;;;;;8.77;2.50;;;16.10;99.90;;;;;;4907672;29;20232;-61
2022/06/10 02:38:55;;;;;;;15.17;2.60;;;16.10;99.90;;;;;;4918520;29;20296;-60
2022/06/10 02:42:09;;;;;;;13.67;2.40;;;16.10;99.90;;;;;;4922742;29;20313;-60
2022/06/10 02:45:23;;;;;;;8.77;2.37;;;16.10;99.90;;;;;;4907724;29;20439;-59
2022/06/10 02:48:34;;;;;;;12.83;3.17;;;16.10;99.90;;;;;;4916314;29;20232;-59
2022/06/10 02:51:41;;;;;;;5.27;2.50;;;16.10;99.90;;;;;;4913616;29;20225;-60
2022/06/10 02:54:47;;;;;;;5.03;2.70;;;16.20;99.90;;;;;;4912624;29;20661;-60
2022/06/10 03:01:26;;;;;;;8.30;2.27;;;16.20;99.90;;;;;;4914503;29;20258;-59
2022/06/10 03:04:42;;;;;;;7.00;2.47;;;16.10;99.90;;;;;;4910625;29;20209;-60
2022/06/10 03:08:03;;;;;;;9.23;2.60;;;16.10;99.90;;;;;;4911714;29;20226;-60
2022/06/10 03:11:26;;;;;;;8.70;2.93;;;16.10;99.90;;;;;;4911639;29;20208;-59
2022/06/10 03:14:43;;;;;;;6.27;2.17;;;16.20;99.90;;;;;;4923551;29;20306;-60
2022/06/10 03:17:57;;;;;;;7.67;2.10;;;16.30;99.90;;;;;;4905345;29;20662;-59
2022/06/10 03:21:16;;;;;;;6.07;2.23;;;16.30;99.90;;;;;;4906405;29;20260;-59
2022/06/10 03:24:34;;;;;;;6.37;2.07;;;16.30;99.90;;;;;;4924329;29;20209;-60
2022/06/10 03:27:45;;;;;;;8.00;2.23;;;16.30;99.90;;;;;;4914211;29;20245;-59
2022/06/10 03:30:55;;;;;;;6.33;2.17;;;16.30;99.90;;;;;;4899030;29;20293;-59
2022/06/10 03:34:05;;;;;;;8.40;2.60;;;16.30;99.90;;;;;;4916030;29;20210;-60
2022/06/10 03:37:13;;;;;;;4.73;2.30;;;16.30;99.90;;;;;;4916011;29;20281;-59
2022/06/10 03:40:23;;;;;;;6.77;2.07;;;16.40;99.90;;;;;;4912198;29;20349;-59
2022/06/10 03:43:35;;;;;;;6.27;2.37;;;16.40;99.90;;;;;;4913404;29;20561;-59
2022/06/10 03:46:45;;;;;;;5.43;2.17;;;16.30;99.90;;;;;;4919052;29;20589;-59
2022/06/10 03:49:55;;;;;;;4.47;2.00;;;16.40;99.90;;;;;;4919030;29;20217;-59
2022/06/10 03:53:01;;;;;;;6.50;2.20;;;16.30;99.90;;;;;;4914842;29;20220;-59
2022/06/10 03:56:08;;;;;;;5.70;2.00;;;16.40;99.90;;;;;;4912432;29;20688;-59
2022/06/10 03:59:14;;;;;;;5.37;2.40;;;16.40;99.90;;;;;;4908782;29;20206;-60
2022/06/10 04:02:20;;;;;;;10.90;2.50;;;16.40;99.90;;;;;;4914269;29;20232;-59
2022/06/10 04:05:27;;;;;;;11.93;2.37;;;16.40;99.90;;;;;;4914213;29;20393;-59
2022/06/10 04:08:32;;;;;;;10.53;2.53;;;16.40;99.90;;;;;;4913381;29;20289;-59
2022/06/10 04:11:40;;;;;;;10.13;2.67;;;16.40;99.90;;;;;;4916015;29;20205;-59
2022/06/10 04:14:48;;;;;;;13.37;3.30;;;16.30;99.90;;;;;;4919709;29;20233;-59
2022/06/10 04:18:04;;;;;;;8.30;2.90;;;16.40;99.90;;;;;;4912409;29;20682;-59
2022/06/10 04:21:11;;;;;;;10.10;3.03;;;16.40;99.90;;;;;;4917704;29;20246;-59
2022/06/10 04:24:17;;;;;;;16.93;4.33;;;16.40;99.90;;;;;;4914251;29;20237;-59
2022/06/10 04:27:24;;;;;;;10.00;3.90;;;16.30;99.90;;;;;;4922299;29;20277;-59
2022/06/10 04:30:33;;;;;;;15.90;4.63;;;16.40;99.90;;;;;;4919501;29;20261;-59
2022/06/10 04:33:42;;;;;;;11.50;5.17;;;16.40;99.90;;;;;;4919758;29;20241;-59
2022/06/10 04:36:47;;;;;;;14.00;5.03;;;16.50;99.90;;;;;;4919724;29;20380;-59
2022/06/10 04:39:53;;;;;;;12.77;5.50;;;16.50;99.90;;;;;;4913001;29;20244;-59
2022/06/10 04:43:01;;;;;;;13.77;6.07;;;16.40;99.90;;;;;;4917438;29;20237;-59
2022/06/10 04:46:09;;;;;;;13.60;6.03;;;16.40;99.90;;;;;;4917617;29;20278;-59
2022/06/10 04:49:16;;;;;;;11.03;6.13;;;16.60;99.90;;;;;;4915420;29;20221;-59
2022/06/10 04:52:22;;;;;;;17.43;6.80;;;16.50;99.90;;;;;;4915420;29;20273;-60
2022/06/10 04:55:32;;;;;;;15.30;7.53;;;16.50;99.90;;;;;;4911491;29;20265;-59
2022/06/10 04:58:40;;;;;;;16.77;7.13;;;16.50;99.90;;;;;;4917015;29;20209;-60
2022/06/10 05:01:45;;;;;;;11.43;6.60;;;16.50;99.90;;;;;;4915851;29;20593;-60
2022/06/10 05:04:53;;;;;;;17.87;7.63;;;16.50;99.90;;;;;;4911853;29;20295;-60
2022/06/10 05:08:00;;;;;;;15.13;6.90;;;16.50;99.90;;;;;;4915095;29;20246;-59
2022/06/10 05:11:07;;;;;;;18.07;7.10;;;16.50;99.90;;;;;;4917854;29;20199;-60
2022/06/10 05:14:14;;;;;;;16.87;7.40;;;16.50;99.90;;;;;;4913074;29;20672;-60
2022/06/10 05:17:19;;;;;;;14.33;6.77;;;16.50;99.90;;;;;;4917437;29;20666;-60
2022/06/10 05:20:27;;;;;;;15.23;6.93;;;16.60;99.90;;;;;;4919314;29;20213;-59
2022/06/10 05:23:33;;;;;;;13.80;6.40;;;16.50;99.90;;;;;;4915293;29;20621;-60
2022/06/10 05:26:39;;;;;;;11.97;6.40;;;16.60;99.90;;;;;;4915697;29;20210;-60
2022/06/10 05:29:46;;;;;;;11.30;5.90;;;16.60;99.90;;;;;;4915568;29;20282;-60
2022/06/10 05:32:53;;;;;;;13.30;5.93;;;16.60;99.90;;;;;;4914958;29;20583;-60
2022/06/10 05:35:58;;;;;;;15.73;6.43;;;16.60;99.90;;;;;;4916564;29;20689;-60
2022/06/10 05:39:06;;;;;;;16.97;6.47;;;16.60;99.90;;;;;;4917613;29;20230;-60
2022/06/10 05:42:12;;;;;;;13.53;6.47;;;16.60;99.90;;;;;;4906359;29;20246;-60
2022/06/10 05:45:22;;;;;;;14.70;5.70;;;16.50;99.90;;;;;;4917265;29;20213;-59
2022/06/10 05:48:28;;;;;;;13.57;5.47;;;16.60;99.90;;;;;;4926959;29;20692;-61
2022/06/10 05:51:34;;;;;;;13.47;5.60;;;16.60;99.90;;;;;;4917835;29;20236;-60
2022/06/10 05:54:43;;;;;;;13.17;5.70;;;16.60;99.90;;;;;;4917074;29;20238;-60
2022/06/10 05:57:51;;;;;;;11.73;5.80;;;16.60;99.90;;;;;;4919568;29;20666;-60
2022/06/10 06:00:58;;;;;;;12.37;4.93;;;16.60;99.90;;;;;;4917798;29;20273;-60
2022/06/10 06:04:04;;;;;;;10.67;4.53;;;16.60;99.90;;;;;;4910075;29;20220;-60
2022/06/10 06:06:33;;;;;;;9.77;4.60;;;16.70;99.90;;;;;;4917175;29;20206;-60
2022/06/10 06:09:42;;;;;;;9.33;3.80;;;16.70;99.90;;;;;;4909404;29;20229;-60
2022/06/10 06:12:50;;;;;;;10.83;3.80;;;16.80;99.90;;;;;;4916383;29;20209;-59
2022/06/10 06:15:29;;;;;;;10.97;3.73;;;16.80;99.90;;;;;;4916007;29;20199;-60
2022/06/10 06:18:00;;;;;;;10.13;3.60;;;16.70;99.90;;;;;;4900317;29;20198;-60
2022/06/10 06:20:28;;;;;;;8.93;3.30;;;16.80;99.90;;;;;;4900626;29;20296;-60
2022/06/10 06:22:57;;;;;;;5.80;2.93;;;16.80;99.90;;;;;;4900441;29;20225;-60
2022/06/10 06:25:25;;;;;;;7.57;2.73;;;16.80;99.90;;;;;;4900765;29;20204;-60
2022/06/10 06:27:54;;;;;;;12.90;3.23;;;16.80;99.90;;;;;;4917632;29;20205;-60
2022/06/10 06:30:26;;;;;;;8.53;2.90;;;16.80;99.90;;;;;;4917656;29;20209;-60
2022/06/10 06:32:55;;;;;;;5.53;2.47;;;16.80;99.90;;;;;;4898180;29;20202;-60
2022/06/10 06:35:26;;;;;;;6.40;2.50;;;16.80;99.90;;;;;;4914443;29;20210;-60
2022/06/10 06:37:54;;;;;;;8.40;2.47;;;16.80;99.90;;;;;;4921836;29;20403;-60
2022/06/10 06:40:22;;;;;;;8.93;2.30;;;16.80;99.90;;;;;;4916711;29;20202;-60
2022/06/10 06:42:51;;;;;;;9.60;2.50;;;16.80;99.90;;;;;;4916631;29;20233;-60
2022/06/10 06:45:21;;;;;;;5.33;2.30;;;16.90;99.90;;;;;;4913351;29;20280;-60
2022/06/10 06:47:59;;;;;;;5.73;2.50;;;16.90;99.90;;;;;;4916273;29;20203;-60
2022/06/10 06:50:31;;;;;;;6.00;2.33;;;16.90;99.90;;;;;;4914944;29;20209;-60
2022/06/10 06:53:00;;;;;;;5.97;2.30;;;17.00;99.90;;;;;;4903869;29;20195;-60
2022/06/10 06:55:35;;;;;;;6.77;2.27;;;17.10;99.90;;;;;;4917283;29;20264;-60
2022/06/10 06:58:04;;;;;;;6.17;2.17;;;17.20;99.90;;;;;;4915370;29;20247;-60
2022/06/10 07:00:32;;;;;;;5.93;2.30;;;17.30;99.90;;;;;;4916501;29;20205;-60
2022/06/10 07:03:01;;;;;;;8.33;2.50;;;17.30;99.90;;;;;;4902966;29;20661;-60
2022/06/10 07:05:31;;;;;;;10.30;2.77;;;17.50;99.90;;;;;;4914038;29;20194;-60
2022/06/10 07:08:00;;;;;;;7.27;2.60;;;17.50;99.90;;;;;;4906167;29;20675;-60
2022/06/10 07:10:29;;;;;;;6.03;2.63;;;17.60;99.90;;;;;;4916654;29;20546;-60
2022/06/10 07:12:58;;;;;;;6.03;2.40;;;17.70;99.90;;;;;;4898082;29;20196;-60
2022/06/10 07:15:27;;;;;;;7.10;2.33;;;17.80;99.90;;;;;;4924918;29;20197;-61
2022/06/10 07:17:56;;;;;;;4.80;2.27;;;18.00;99.90;;;;;;4905474;29;20579;-60
2022/06/10 07:20:32;;;;;;;5.70;2.20;;;18.00;99.90;;;;;;4930266;29;20206;-60
2022/06/10 07:23:01;;;;;;;5.07;2.37;;;18.10;99.90;;;;;;4919829;29;20294;-60
2022/06/10 07:25:31;;;;;;;9.53;2.60;;;18.20;99.90;;;;;;4913377;29;20205;-60
2022/06/10 07:27:59;;;;;;;9.30;2.77;;;18.40;99.90;;;;;;4912304;29;20205;-61
2022/06/10 07:30:31;;;;;;;8.60;2.63;;;18.50;99.90;;;;;;4912901;29;20197;-60
2022/06/10 07:33:00;;;;;;;6.37;2.50;;;18.60;99.90;;;;;;4909756;29;20194;-60
2022/06/10 07:35:30;;;;;;;5.90;2.67;;;18.70;99.90;;;;;;4913371;29;20562;-61
2022/06/10 07:38:00;;;;;;;9.20;2.13;;;18.80;99.90;;;;;;4913204;29;20269;-60
2022/06/10 07:43:35;;;;;;;6.93;2.37;;;18.90;99.90;;;;;;4904213;29;20248;-60
2022/06/10 07:46:05;;;;;;;5.47;2.53;;;19.20;99.90;;;;;;4902089;29;20253;-60
2022/06/10 07:48:33;;;;;;;7.57;2.60;;;19.40;99.90;;;;;;4916355;29;20214;-60
2022/06/10 07:51:03;;;;;;;5.63;2.60;;;19.50;99.90;;;;;;4919380;29;20218;-60
2022/06/10 07:53:32;;;;;;;7.93;2.40;;;19.60;99.90;;;;;;4919218;29;20204;-60
2022/06/10 07:56:01;;;;;;;8.67;2.60;;;19.50;99.90;;;;;;4917058;29;20225;-60
2022/06/10 07:58:30;;;;;;;8.30;3.17;;;19.60;99.90;;;;;;4902678;29;20209;-59
2022/06/10 08:00:59;;;;;;;10.43;2.73;;;19.90;99.90;;;;;;4919032;29;20212;-60
2022/06/10 08:03:29;;;;;;;9.67;2.87;;;20.20;99.90;;;;;;4917944;29;20228;-60
2022/06/10 08:05:59;;;;;;;5.47;2.73;;;20.20;99.90;;;;;;4913569;29;20265;-60
2022/06/10 08:08:29;;;;;;;8.40;2.53;;;20.10;99.90;;;;;;4917611;29;20232;-60
2022/06/10 08:10:57;;;;;;;8.77;2.60;;;20.00;99.90;;;;;;4919251;29;20526;-60
2022/06/10 08:13:26;;;;;;;7.63;2.60;;;20.20;99.90;;;;;;4914454;29;20209;-59
2022/06/10 08:15:58;;;;;;;9.37;2.70;;;20.00;99.90;;;;;;4916898;29;20205;-60
2022/06/10 08:18:31;;;;;;;3.57;2.60;;;20.20;99.90;;;;;;4916081;29;20668;-60
2022/06/10 08:23:49;;;;;;;8.57;2.47;;;20.90;99.90;;;;;;4916714;29;20749;-60
2022/06/10 08:26:18;;;;;;;8.43;2.50;;;21.30;99.90;;;;;;4917884;29;20198;-60
2022/06/10 08:28:48;;;;;;;4.53;2.40;;;21.60;99.90;;;;;;4911907;29;20207;-60
2022/06/10 08:31:16;;;;;;;11.50;2.70;;;21.70;99.90;;;;;;4909997;29;20672;-60
2022/06/10 08:33:45;;;;;;;5.00;2.33;;;21.70;99.90;;;;;;4911859;29;20199;-60
2022/06/10 08:36:14;;;;;;;7.80;2.30;;;21.60;99.90;;;;;;4913089;29;20238;-61
2022/06/10 08:38:46;;;;;;;8.03;2.50;;;21.80;99.90;;;;;;4916311;29;20250;-60
2022/06/10 08:41:27;;;;;;;6.13;2.37;;;22.20;99.90;;;;;;4920394;29;20267;-60
2022/06/10 08:44:03;;;;;;;8.90;2.30;;;22.30;99.90;;;;;;4915463;29;20282;-60
2022/06/10 08:47:09;;;;;;;9.43;2.40;;;22.30;99.90;;;;;;4898261;29;20203;-60
2022/06/10 08:49:57;;;;;;;6.83;2.47;;;22.00;99.90;;;;;;4906822;29;20678;-60
2022/06/10 08:52:35;;;;;;;5.63;2.30;;;21.70;99.90;;;;;;4917670;29;20203;-60
2022/06/10 08:55:14;;;;;;;7.70;2.80;;;21.50;99.90;;;;;;4914122;29;20611;-61
2022/06/10 08:57:46;;;;;;;5.27;2.47;;;21.40;99.90;;;;;;4915233;29;20209;-60
2022/06/10 09:00:20;;;;;;;5.90;2.23;;;21.20;99.90;;;;;;4913988;29;20677;-60
2022/06/10 09:02:54;;;;;;;9.63;2.40;;;21.10;99.90;;;;;;4913624;29;20209;-60
2022/06/10 09:05:27;;;;;;;10.17;2.80;;;21.10;99.90;;;;;;4917283;29;20223;-60
2022/06/10 09:08:00;;;;;;;7.50;2.60;;;21.50;99.90;;;;;;4916912;29;20662;-60
2022/06/10 09:10:38;;;;;;;4.97;2.17;;;22.10;99.90;;;;;;4916527;29;20754;-60
2022/06/10 09:13:33;;;;;;;6.80;2.50;;;22.60;99.90;;;;;;4911546;29;20252;-61
2022/06/10 09:16:10;;;;;;;7.63;2.70;;;22.90;99.90;;;;;;4899516;29;21414;-60
2022/06/10 09:18:54;;;;;;;8.80;2.97;;;22.80;99.90;;;;;;4917021;29;20203;-59
2022/06/10 09:21:28;;;;;;;8.07;2.80;;;22.80;99.90;;;;;;4911985;29;20225;-60
2022/06/10 09:24:03;;;;;;;10.13;2.50;;;22.70;99.90;;;;;;4911846;29;20674;-60
2022/06/10 09:26:40;;;;;;;4.43;2.50;;;22.90;99.90;;;;;;4897413;29;20199;-60
2022/06/10 09:29:12;;;;;;;6.50;2.20;;;23.20;99.90;;;;;;4918382;29;20263;-58
2022/06/10 09:31:42;;;;;;;12.20;2.60;;;23.50;99.90;;;;;;4895753;29;20204;-61
2022/06/10 09:34:30;;;;;;;7.90;2.57;;;23.70;99.90;;;;;;4914128;29;20201;-61
2022/06/10 09:37:09;;;;;;;12.23;2.43;;;23.70;99.90;;;;;;4919253;29;20702;-58
2022/06/10 09:42:40;;;;;;;9.53;2.90;;;24.50;99.90;;;;;;4914957;29;20212;-58
2022/06/10 09:45:19;;;;;;;8.97;2.70;;;24.50;99.90;;;;;;4916224;29;20214;-58
2022/06/10 09:48:00;;;;;;;7.63;2.43;;;24.60;99.90;;;;;;4913368;29;20205;-58
2022/06/10 09:50:34;;;;;;;6.60;2.43;;;24.70;99.90;;;;;;4888440;29;20201;-58
2022/06/10 09:53:18;;;;;;;5.67;2.57;;;24.50;99.90;;;;;;4902049;29;20196;-58
2022/06/10 09:55:58;;;;;;;6.27;2.50;;;24.20;99.90;;;;;;4908989;29;20201;-58
2022/06/10 09:58:50;;;;;;;7.90;2.50;;;24.00;99.90;;;;;;4915877;29;20202;-59
2022/06/10 10:01:32;;;;;;;11.83;2.87;;;23.60;99.90;;;;;;4912104;29;20676;-58
2022/06/10 10:05:09;;;;;;;7.13;2.30;;;23.40;99.90;;;;;;4923519;29;20278;-58
2022/06/10 10:08:12;;;;;;;9.00;2.83;;;23.30;99.90;;;;;;4895675;29;20251;-58
2022/06/10 10:10:49;;;;;;;7.77;2.80;;;22.90;99.90;;;;;;4920961;29;20200;-58
2022/06/10 10:13:53;;;;;;;6.20;2.57;;;23.20;99.90;;;;;;4895357;29;20641;-57
2022/06/10 10:16:34;;;;;;;6.03;2.50;;;23.90;99.90;;;;;;4910182;29;20673;-58
2022/06/10 10:19:21;;;;;;;6.07;2.20;;;24.70;99.90;;;;;;4911037;29;20198;-58
2022/06/10 10:21:56;;;;;;;4.50;2.80;;;25.10;99.90;;;;;;4908820;29;20201;-59
2022/06/10 10:24:28;;;;;;;7.43;2.37;;;25.30;99.90;;;;;;4900569;29;20272;-59
2022/06/10 10:26:58;;;;;;;6.07;2.50;;;25.10;99.90;;;;;;4897989;29;20675;-59
2022/06/10 10:29:30;;;;;;;8.03;2.80;;;24.60;99.90;;;;;;4891338;29;20205;-59
2022/06/10 10:32:05;;;;;;;7.63;2.67;;;24.30;99.90;;;;;;4917358;29;20201;-59
2022/06/10 10:34:41;;;;;;;5.00;2.27;;;24.10;99.90;;;;;;4906876;29;20289;-59
2022/06/10 10:37:22;;;;;;;5.77;2.60;;;24.00;99.90;;;;;;4896737;29;20755;-59
2022/06/10 10:39:53;;;;;;;7.43;2.43;;;24.20;99.90;;;;;;4893698;29;20195;-59
2022/06/10 10:42:24;;;;;;;7.50;2.37;;;24.30;99.90;;;;;;4910842;29;20265;-59
2022/06/10 10:45:00;;;;;;;4.13;2.43;;;24.40;99.90;;;;;;4907080;29;20293;-59
2022/06/10 10:47:33;;;;;;;12.00;2.53;;;24.20;99.90;;;;;;4910523;29;20687;-59
2022/06/10 10:50:18;;;;;;;9.03;2.40;;;24.10;99.90;;;;;;4908245;29;20211;-58
2022/06/10 10:54:44;;;;;;;6.10;2.40;;;23.60;99.90;;;;;;5171564;27;20539;-94
2022/06/10 10:57:22;;;;;;;7.57;2.90;;;23.50;99.90;;;;;;5154663;27;20266;-93
2022/06/10 11:00:00;;;;;;;7.97;2.77;;;23.30;99.90;;;;;;5172103;27;20199;-92
2022/06/10 11:02:33;;;;;;;6.47;2.43;;;23.00;99.90;;;;;;5138836;27;20202;-94
2022/06/10 11:05:26;;;;;;;7.70;2.47;;;22.90;99.90;;;;;;5153568;27;20191;-92
2022/06/10 11:08:30;;;;;;;8.80;2.73;;;22.90;99.90;;;;;;5153674;27;20677;-91
2022/06/10 11:11:17;;;;;;;8.27;2.50;;;22.90;99.90;;;;;;5153029;27;20186;-93
2022/06/10 11:13:53;;;;;;;7.93;2.20;;;23.30;99.90;;;;;;5135051;27;20204;-94
2022/06/10 11:16:39;;;;;;;6.07;2.30;;;24.10;99.90;;;;;;5135347;27;20660;-95
2022/06/10 11:19:17;;;;;;;19.70;3.30;;;24.70;99.90;;;;;;5152455;27;20190;-91
2022/06/10 11:21:57;;;;;;;4.20;2.10;;;24.40;99.90;;;;;;5135107;27;20193;-92
2022/06/10 11:24:28;;;;;;;8.70;2.53;;;24.00;99.90;;;;;;5152324;27;20209;-92
2022/06/10 11:27:01;;;;;;;7.57;2.30;;;24.30;99.90;;;;;;5134897;27;20683;-93
2022/06/10 11:29:33;;;;;;;7.63;2.60;;;24.80;99.90;;;;;;5152456;27;20711;-94
2022/06/10 11:32:06;;;;;;;8.50;2.80;;;25.50;99.90;;;;;;5151963;27;20226;-92
2022/06/10 11:34:38;;;;;;;4.43;2.40;;;25.80;99.90;;;;;;5151925;27;20214;-92
2022/06/10 11:37:32;;;;;;;8.47;3.00;;;26.00;99.90;;;;;;5135287;27;20631;-92
2022/06/10 11:40:12;;;;;;;6.70;2.40;;;25.60;99.90;;;;;;5134640;27;20190;-92
2022/06/10 11:42:47;;;;;;;7.20;2.73;;;25.10;99.90;;;;;;5151691;27;20174;-91
2022/06/10 11:45:20;;;;;;;4.97;2.37;;;24.90;99.90;;;;;;5134648;27;20195;-91
2022/06/10 11:47:57;;;;;;;7.07;2.77;;;24.60;99.90;;;;;;5152841;27;20184;-91
2022/06/10 11:50:33;;;;;;;3.73;2.13;;;24.40;99.90;;;;;;5134373;27;20185;-92
2022/06/10 11:53:16;;;;;;;7.13;2.57;;;24.20;99.90;;;;;;5134202;27;20228;-90
2022/06/10 11:55:49;;;;;;;6.53;2.57;;;24.10;99.90;;;;;;5151714;27;20188;-92
2022/06/10 12:01:18;;;;;;;4.60;2.57;;;24.10;99.90;;;;;;5151636;27;20186;-94
2022/06/10 12:03:52;;;;;;;6.30;2.47;;;24.00;99.90;;;;;;5133398;27;20661;-94
2022/06/10 12:06:25;;;;;;;5.73;2.40;;;24.00;99.90;;;;;;5154763;27;20172;-93
2022/06/10 12:09:00;;;;;;;10.10;2.60;;;24.10;99.90;;;;;;5138012;27;20218;-93
2022/06/10 12:11:36;;;;;;;8.23;2.57;;;24.00;99.90;;;;;;5120375;27;20182;-95
2022/06/10 12:14:14;;;;;;;8.93;2.20;;;23.80;99.90;;;;;;5120319;27;20235;-94
2022/06/10 12:16:47;;;;;;;5.23;2.73;;;23.80;99.90;;;;;;5137524;27;20185;-96
2022/06/10 12:19:22;;;;;;;6.13;2.40;;;23.80;99.90;;;;;;5121023;27;20192;-94
2022/06/10 12:21:53;;;;;;;7.03;2.43;;;23.90;99.90;;;;;;5137225;27;20581;-94
2022/06/10 12:24:22;;;;;;;4.33;2.50;;;24.20;99.90;;;;;;5120115;27;20190;-94
2022/06/10 12:26:56;;;;;;;7.30;2.80;;;24.40;99.90;;;;;;5137212;27;20191;-94
2022/06/10 12:29:39;;;;;;;5.90;2.60;;;24.40;99.90;;;;;;5120889;27;20181;-93
2022/06/10 12:32:19;;;;;;;8.13;2.27;;;24.50;99.90;;;;;;5137225;27;20193;-96
2022/06/10 12:34:57;;;;;;;6.50;2.33;;;24.50;99.90;;;;;;5154584;27;20261;-92
2022/06/10 12:37:36;;;;;;;6.20;2.73;;;24.30;99.90;;;;;;5119737;27;20184;-93
2022/06/10 12:40:13;;;;;;;6.13;2.40;;;24.20;99.90;;;;;;5154380;27;20193;-92
2022/06/10 12:42:46;;;;;;;5.73;2.20;;;24.00;99.90;;;;;;5119936;27;20225;-94
2022/06/10 12:45:22;;;;;;;4.03;2.30;;;23.70;99.90;;;;;;5136986;27;20193;-92
2022/06/10 12:47:59;;;;;;;6.67;2.60;;;23.60;99.90;;;;;;5136726;27;20188;-92
2022/06/10 12:50:35;;;;;;;4.47;2.10;;;23.40;99.90;;;;;;5119552;27;20179;-94
2022/06/10 12:53:28;;;;;;;5.53;2.50;;;23.20;99.90;;;;;;5119085;27;20263;-93
2022/06/10 12:55:59;;;;;;;4.70;2.33;;;23.00;99.90;;;;;;5134396;27;20596;-92
2022/06/10 12:58:46;;;;;;;5.10;2.30;;;22.90;99.90;;;;;;5136468;27;20192;-93
2022/06/10 13:01:20;;;;;;;3.50;2.00;;;22.90;99.90;;;;;;5136506;27;20186;-93
2022/06/10 13:03:51;;;;;;;5.73;2.20;;;23.00;99.90;;;;;;5136569;27;20269;-94
2022/06/10 13:06:49;;;;;;;4.13;2.10;;;23.00;99.90;;;;;;5119694;27;20186;-93
2022/06/10 13:09:29;;;;;;;4.83;2.27;;;23.20;99.90;;;;;;5119009;27;20208;-93
2022/06/10 13:12:01;;;;;;;4.70;2.47;;;23.50;99.90;;;;;;5136437;27;20178;-94
2022/06/10 13:14:45;;;;;;;6.97;2.17;;;23.60;99.90;;;;;;5119130;27;20243;-92
2022/06/10 13:17:32;;;;;;;4.03;2.57;;;23.60;99.90;;;;;;5118061;27;20195;-93
2022/06/10 13:20:21;;;;;;;8.13;2.77;;;23.70;99.90;;;;;;5119064;27;20195;-95
2022/06/10 13:23:18;;;;;;;5.93;2.50;;;23.80;99.90;;;;;;5118977;27;20267;-92
2022/06/10 13:25:50;;;;;;;8.53;2.47;;;23.80;99.90;;;;;;5136179;27;20176;-94
2022/06/10 13:28:24;;;;;;;3.87;1.87;;;23.80;99.90;;;;;;5136112;27;20200;-95
2022/06/10 13:31:10;;;;;;;4.33;2.27;;;23.70;99.90;;;;;;5119083;27;20207;-92
2022/06/10 13:33:54;;;;;;;8.33;2.00;;;23.50;99.90;;;;;;5118530;27;20189;-95
2022/06/10 13:36:23;;;;;;;9.03;2.40;;;23.20;99.90;;;;;;5135964;27;20196;-92
2022/06/10 13:38:54;;;;;;;4.60;2.13;;;23.20;99.90;;;;;;5135802;27;20214;-92
2022/06/10 13:44:27;;;;;;;5.40;1.93;;;23.10;99.90;;;;;;5125296;27;20200;-93
2022/06/10 13:46:56;;;;;;;3.77;2.00;;;23.20;99.90;;;;;;5135783;27;20193;-94
2022/06/10 13:49:51;;;;;;;3.80;2.10;;;23.40;99.90;;;;;;5118505;27;20192;-95
2022/06/10 13:52:33;;;;;;;6.20;2.10;;;23.50;99.90;;;;;;5136363;27;20196;-93
2022/06/10 13:55:21;;;;;;;11.67;2.27;;;23.70;99.90;;;;;;5118417;27;20257;-94
2022/06/10 13:57:56;;;;;;;6.70;2.07;;;23.80;99.90;;;;;;5135334;27;20655;-93
2022/06/10 14:00:28;;;;;;;5.53;2.00;;;23.70;99.90;;;;;;5135345;27;20191;-93
2022/06/10 14:02:58;;;;;;;5.33;2.33;;;23.80;99.90;;;;;;5135386;27;20188;-93
2022/06/10 14:05:30;;;;;;;2.87;1.70;;;23.70;99.90;;;;;;5118541;27;20187;-92
2022/06/10 14:08:01;;;;;;;2.70;1.63;;;23.70;99.90;;;;;;5135581;27;20193;-93
2022/06/10 14:10:32;;;;;;;5.93;1.63;;;23.70;99.90;;;;;;5135258;27;20550;-93
2022/06/10 14:13:04;;;;;;;5.57;2.10;;;23.70;99.90;;;;;;5118010;27;20197;-93
2022/06/10 14:15:37;;;;;;;4.10;2.30;;;23.70;99.90;;;;;;5118679;27;20215;-93
2022/06/10 14:18:18;;;;;;;6.10;1.77;;;23.70;99.90;;;;;;5118062;27;20653;-95
2022/06/10 14:20:48;;;;;;;7.10;1.60;;;23.90;99.90;;;;;;5136167;27;20188;-93
2022/06/10 14:23:25;;;;;;;5.17;1.90;;;24.10;99.90;;;;;;5117939;27;20675;-92
2022/06/10 14:26:03;;;;;;;5.40;1.67;;;24.40;99.90;;;;;;5135401;27;20192;-92
2022/06/10 14:28:32;;;;;;;3.30;1.57;;;24.60;99.90;;;;;;5152004;27;20666;-93
2022/06/10 14:31:02;;;;;;;2.53;1.60;;;24.40;99.90;;;;;;5134909;27;20198;-94
2022/06/10 14:33:35;;;;;;;5.57;1.93;;;24.30;99.90;;;;;;5135075;27;20554;-95
2022/06/10 14:36:14;;;;;;;3.63;1.67;;;24.10;99.90;;;;;;5134840;27;20245;-94
2022/06/10 14:39:01;;;;;;;2.70;1.63;;;23.80;99.90;;;;;;5118094;27;20193;-92
2022/06/10 14:41:32;;;;;;;4.57;1.50;;;23.80;99.90;;;;;;5135585;27;20188;-95
2022/06/10 14:44:14;;;;;;;2.30;1.57;;;23.70;99.90;;;;;;5136218;27;20551;-94
2022/06/10 14:47:03;;;;;;;4.23;1.60;;;23.80;99.90;;;;;;5117678;27;20288;-95
2022/06/10 14:49:43;;;;;;;4.73;1.60;;;23.90;99.90;;;;;;5117606;28;20201;-94
2022/06/10 14:52:22;;;;;;;3.27;1.40;;;23.90;99.90;;;;;;5134847;28;20268;-93
2022/06/10 14:54:50;;;;;;;3.97;1.60;;;24.10;99.90;;;;;;5134859;28;20226;-94
2022/06/10 14:57:26;;;;;;;1.80;1.57;;;24.20;99.90;;;;;;5118986;28;20196;-94